createdAt,value
2019-05-25T00:00:33.415Z,24.87
2019-05-25T00:03:02.896Z,24.37
2019-05-25T00:05:32.382Z,27.07
2019-05-25T00:08:02.079Z,28.90
2019-05-25T00:10:31.485Z,26.97
2019-05-25T00:13:00.981Z,27.90
2019-05-25T00:15:30.393Z,28.27
2019-05-25T00:17:59.876Z,27.63
2019-05-25T00:20:29.302Z,27.97
2019-05-25T00:22:58.716Z,27.80
2019-05-25T00:25:28.240Z,27.90
2019-05-25T00:27:57.648Z,25.43
2019-05-25T00:30:27.053Z,27.47
2019-05-25T00:32:56.736Z,26.20
2019-05-25T00:35:26.133Z,26.93
2019-05-25T00:37:55.572Z,25.93
2019-05-25T00:40:25.005Z,28.23
2019-05-25T00:42:54.677Z,27.83
2019-05-25T00:45:24.242Z,28.50
2019-05-25T00:47:53.660Z,26.40
2019-05-25T00:50:23.097Z,27.70
2019-05-25T00:52:52.498Z,27.70
2019-05-25T00:55:21.947Z,28.87
2019-05-25T00:57:51.362Z,30.67
2019-05-25T01:00:21.482Z,28.47
2019-05-25T01:02:51.395Z,26.57
2019-05-25T01:05:20.894Z,27.13
2019-05-25T01:07:50.418Z,27.87
2019-05-25T01:10:19.891Z,29.87
2019-05-25T01:12:49.302Z,30.37
2019-05-25T01:15:19.373Z,29.17
2019-05-25T01:17:48.861Z,28.40
2019-05-25T01:20:18.815Z,27.60
2019-05-25T01:22:48.220Z,28.50
2019-05-25T01:25:18.638Z,28.67
2019-05-25T01:27:48.062Z,27.17
2019-05-25T01:30:17.983Z,28.23
2019-05-25T01:32:47.480Z,28.30
2019-05-25T01:35:16.964Z,26.73
2019-05-25T01:37:48.461Z,25.13
2019-05-25T01:40:18.046Z,25.73
2019-05-25T01:42:47.463Z,26.87
2019-05-25T01:45:17.222Z,24.50
2019-05-25T01:47:46.623Z,25.13
2019-05-25T01:50:16.284Z,25.17
2019-05-25T01:52:45.761Z,24.80
2019-05-25T01:55:15.404Z,23.50
2019-05-25T01:57:44.820Z,25.60
2019-05-25T02:00:15.217Z,25.50
2019-05-25T02:02:44.714Z,26.40
2019-05-25T02:05:14.343Z,24.57
2019-05-25T02:07:43.749Z,25.73
2019-05-25T02:10:13.569Z,26.10
2019-05-25T02:12:42.984Z,24.70
2019-05-25T02:15:13.110Z,26.87
2019-05-25T02:17:42.660Z,26.33
2019-05-25T02:20:12.349Z,27.00
2019-05-25T02:22:41.824Z,27.17
2019-05-25T02:25:18.067Z,26.27
2019-05-25T02:27:43.013Z,26.03
2019-05-25T02:30:13.499Z,26.17
2019-05-25T02:32:42.937Z,27.40
2019-05-25T02:35:25.714Z,26.60
2019-05-25T02:37:56.231Z,27.10
2019-05-25T02:40:26.080Z,26.30
2019-05-25T02:42:55.549Z,27.03
2019-05-25T02:45:25.580Z,26.87
2019-05-25T02:47:54.992Z,28.77
2019-05-25T02:50:24.570Z,28.07
2019-05-25T02:52:53.966Z,27.23
2019-05-25T02:55:33.938Z,26.70
2019-05-25T02:57:54.588Z,26.90
2019-05-25T03:00:36.839Z,28.33
2019-05-25T03:03:06.416Z,27.27
2019-05-25T03:05:36.142Z,25.23
2019-05-25T03:08:05.853Z,27.03
2019-05-25T03:10:35.351Z,27.90
2019-05-25T03:13:05.191Z,26.63
2019-05-25T03:15:34.701Z,27.30
2019-05-25T03:18:04.115Z,27.53
2019-05-25T03:20:33.607Z,26.17
2019-05-25T03:23:03.030Z,26.23
2019-05-25T03:25:32.418Z,25.93
2019-05-25T03:28:01.836Z,25.20
2019-05-25T03:30:37.554Z,23.63
2019-05-25T03:33:07.510Z,24.80
2019-05-25T03:35:36.909Z,25.57
2019-05-25T03:38:06.328Z,27.17
2019-05-25T03:40:35.743Z,27.23
2019-05-25T03:43:05.299Z,23.93
2019-05-25T03:45:35.394Z,24.07
2019-05-25T03:48:07.059Z,23.93
2019-05-25T03:50:36.465Z,25.13
2019-05-25T03:53:05.896Z,26.23
2019-05-25T03:55:35.365Z,25.67
2019-05-25T03:58:04.853Z,27.37
2019-05-25T04:00:37.616Z,30.13
2019-05-25T04:03:07.635Z,30.17
2019-05-25T04:05:38.972Z,29.07
2019-05-25T04:08:08.376Z,28.23
2019-05-25T04:10:38.912Z,29.37
2019-05-25T04:13:08.566Z,30.37
2019-05-25T04:15:38.058Z,31.23
2019-05-25T04:18:07.483Z,29.17
2019-05-25T04:20:36.889Z,29.00
2019-05-25T04:23:06.306Z,29.97
2019-05-25T04:25:35.706Z,29.47
2019-05-25T04:28:05.284Z,33.00
2019-05-25T04:30:34.701Z,33.43
2019-05-25T04:33:04.098Z,33.27
2019-05-25T04:35:33.523Z,31.40
2019-05-25T04:38:02.941Z,32.47
2019-05-25T04:40:32.398Z,31.30
2019-05-25T04:43:01.808Z,28.03
2019-05-25T04:45:31.250Z,29.00
2019-05-25T04:48:00.669Z,29.30
2019-05-25T04:50:30.138Z,30.40
2019-05-25T04:52:59.565Z,31.13
2019-05-25T04:55:28.980Z,31.50
2019-05-25T04:57:58.390Z,31.40
2019-05-25T05:00:27.822Z,33.77
2019-05-25T05:02:57.227Z,33.03
2019-05-25T05:05:26.653Z,34.37
2019-05-25T05:07:56.096Z,35.00
2019-05-25T05:10:25.511Z,33.77
2019-05-25T05:12:54.916Z,33.57
2019-05-25T05:15:24.409Z,33.40
2019-05-25T05:17:53.816Z,33.67
2019-05-25T05:20:23.298Z,32.63
2019-05-25T05:22:52.809Z,33.77
2019-05-25T05:25:22.278Z,33.57
2019-05-25T05:27:51.676Z,33.50
2019-05-25T05:30:33.152Z,33.03
2019-05-25T05:33:02.997Z,33.60
2019-05-25T05:35:38.557Z,32.33
2019-05-25T05:38:06.915Z,33.47
2019-05-25T05:40:37.619Z,34.07
2019-05-25T05:43:11.472Z,34.70
2019-05-25T05:45:43.033Z,32.10
2019-05-25T05:48:13.333Z,33.50
2019-05-25T05:50:42.805Z,32.87
2019-05-25T05:53:12.322Z,34.37
2019-05-25T05:55:42.716Z,31.96
2019-05-25T05:58:12.401Z,33.73
2019-05-25T06:00:41.830Z,33.57
2019-05-25T06:03:11.241Z,32.70
2019-05-25T06:05:40.968Z,31.37
2019-05-25T06:08:10.392Z,31.50
2019-05-25T06:10:39.800Z,30.10
2019-05-25T06:13:09.305Z,31.67
2019-05-25T06:15:38.737Z,32.27
2019-05-25T06:18:08.148Z,30.60
2019-05-25T06:20:37.840Z,32.03
2019-05-25T06:23:11.583Z,30.43
2019-05-25T06:25:38.415Z,30.57
2019-05-25T06:28:07.908Z,30.40
2019-05-25T06:30:37.417Z,29.70
2019-05-25T06:33:06.831Z,30.57
2019-05-25T06:35:36.279Z,31.73
2019-05-25T06:38:06.122Z,31.93
2019-05-25T06:40:35.525Z,29.77
2019-05-25T06:43:05.167Z,31.53
2019-05-25T06:45:34.642Z,30.70
2019-05-25T06:48:04.524Z,30.07
2019-05-25T06:50:33.945Z,32.27
2019-05-25T06:53:03.360Z,31.20
2019-05-25T06:55:32.843Z,30.50
2019-05-25T06:58:02.430Z,31.80
2019-05-25T07:00:34.057Z,32.67
2019-05-25T07:03:03.441Z,32.23
2019-05-25T07:05:32.884Z,32.87
2019-05-25T07:08:02.368Z,31.70
2019-05-25T07:10:31.777Z,34.97
2019-05-25T07:13:01.462Z,35.33
2019-05-25T07:15:30.957Z,32.93
2019-05-25T07:18:00.464Z,33.73
2019-05-25T07:20:29.888Z,33.27
2019-05-25T07:22:59.368Z,34.37
2019-05-25T07:25:28.847Z,34.10
2019-05-25T07:28:00.299Z,36.07
2019-05-25T07:30:29.414Z,31.10
2019-05-25T07:32:58.815Z,31.33
2019-05-25T07:35:28.296Z,32.73
2019-05-25T07:37:57.734Z,33.40
2019-05-25T07:40:27.134Z,34.73
2019-05-25T07:42:56.569Z,34.10
2019-05-25T07:45:25.981Z,34.03
2019-05-25T07:47:55.401Z,33.13
2019-05-25T07:50:25.096Z,31.83
2019-05-25T07:52:54.517Z,31.47
2019-05-25T07:55:23.955Z,32.50
2019-05-25T07:57:53.364Z,33.47
2019-05-25T08:00:22.978Z,32.20
2019-05-25T08:02:52.389Z,33.20
2019-05-25T08:05:21.800Z,32.90
2019-05-25T08:07:51.246Z,33.07
2019-05-25T08:10:22.947Z,33.50
2019-05-25T08:12:52.387Z,33.50
2019-05-25T08:15:21.877Z,33.90
2019-05-25T08:17:51.290Z,30.30
2019-05-25T08:20:21.136Z,27.67
2019-05-25T08:22:50.542Z,29.10
2019-05-25T08:25:20.214Z,27.47
2019-05-25T08:27:49.637Z,27.27
2019-05-25T08:30:19.281Z,26.20
2019-05-25T08:32:48.708Z,26.03
2019-05-25T08:35:18.319Z,25.07
2019-05-25T08:37:55.098Z,26.07
2019-05-25T08:40:24.787Z,25.73
2019-05-25T08:42:54.470Z,26.13
2019-05-25T08:45:25.997Z,26.83
2019-05-25T08:47:57.295Z,26.57
2019-05-25T08:50:37.964Z,26.97
2019-05-25T08:52:58.030Z,27.10
2019-05-25T08:55:27.525Z,26.17
2019-05-25T08:57:57.221Z,27.37
2019-05-25T09:00:26.699Z,26.87
2019-05-25T09:02:56.138Z,27.33
2019-05-25T09:05:25.559Z,26.10
2019-05-25T09:07:55.047Z,25.67
2019-05-25T09:10:24.627Z,25.30
2019-05-25T09:12:54.291Z,24.97
2019-05-25T09:15:24.054Z,24.63
2019-05-25T09:17:53.456Z,25.63
2019-05-25T09:20:23.058Z,25.70
2019-05-25T09:22:52.474Z,25.87
2019-05-25T09:25:22.035Z,25.23
2019-05-25T09:27:51.487Z,24.60
2019-05-25T09:30:21.177Z,24.40
2019-05-25T09:32:50.769Z,24.27
2019-05-25T09:35:20.199Z,24.73
2019-05-25T09:37:49.698Z,24.60
2019-05-25T09:40:19.340Z,22.63
2019-05-25T09:42:49.105Z,24.10
2019-05-25T09:45:18.983Z,23.50
2019-05-25T09:47:48.407Z,24.00
2019-05-25T09:50:17.972Z,24.57
2019-05-25T09:52:47.390Z,23.07
2019-05-25T09:55:17.241Z,23.17
2019-05-25T09:57:46.738Z,25.03
2019-05-25T10:00:19.300Z,24.13
2019-05-25T10:02:49.050Z,24.53
2019-05-25T10:05:19.519Z,24.67
2019-05-25T10:07:48.997Z,26.33
2019-05-25T10:10:19.950Z,25.83
2019-05-25T10:12:49.365Z,29.03
2019-05-25T10:15:18.926Z,28.87
2019-05-25T10:17:48.395Z,26.10
2019-05-25T10:20:18.471Z,29.60
2019-05-25T10:22:47.885Z,31.17
2019-05-25T10:25:17.448Z,30.83
2019-05-25T10:27:46.871Z,31.23
2019-05-25T10:30:17.918Z,31.37
2019-05-25T10:32:47.361Z,31.07
2019-05-25T10:35:16.929Z,31.43
2019-05-25T10:37:46.323Z,30.47
2019-05-25T10:40:15.998Z,30.80
2019-05-25T10:42:45.427Z,31.43
2019-05-25T10:45:15.385Z,32.50
2019-05-25T10:47:44.802Z,33.30
2019-05-25T10:50:14.824Z,31.00
2019-05-25T10:52:44.242Z,31.97
2019-05-25T10:55:14.059Z,31.87
2019-05-25T10:57:43.492Z,30.90
2019-05-25T11:00:14.403Z,32.23
2019-05-25T11:02:43.838Z,31.67
2019-05-25T11:05:14.670Z,33.80
2019-05-25T11:07:44.073Z,32.57
2019-05-25T11:10:14.002Z,34.17
2019-05-25T11:12:44.977Z,34.43
2019-05-25T11:15:15.906Z,34.50
2019-05-25T11:17:45.454Z,34.33
2019-05-25T11:20:15.106Z,35.33
2019-05-25T11:22:44.794Z,37.73
2019-05-25T11:25:15.219Z,37.13
2019-05-25T11:27:44.687Z,37.30
2019-05-25T11:30:14.773Z,35.00
2019-05-25T11:32:44.543Z,34.97
2019-05-25T11:35:17.527Z,34.40
2019-05-25T11:41:16.839Z,35.50
2019-05-25T11:43:46.270Z,33.23
2019-05-25T11:46:15.705Z,37.13
2019-05-25T11:48:45.216Z,38.20
2019-05-25T11:51:14.671Z,38.20
2019-05-25T11:53:44.106Z,37.80
2019-05-25T11:56:13.543Z,38.53
2019-05-25T11:58:47.577Z,36.27
2019-05-25T12:01:14.278Z,33.23
2019-05-25T12:03:43.730Z,34.80
2019-05-25T12:06:13.224Z,32.97
2019-05-25T12:08:42.664Z,31.70
2019-05-25T12:11:12.123Z,32.87
2019-05-25T12:13:41.564Z,34.80
2019-05-25T12:16:11.018Z,33.23
2019-05-25T12:18:40.594Z,34.53
2019-05-25T12:21:10.052Z,37.53
2019-05-25T12:23:39.554Z,39.07
2019-05-25T12:26:08.990Z,41.33
2019-05-25T12:28:38.507Z,41.70
2019-05-25T12:31:07.941Z,44.23
2019-05-25T12:33:37.400Z,36.43
2019-05-25T12:36:08.166Z,32.93
2019-05-25T12:38:37.595Z,38.97
2019-05-25T12:41:07.048Z,42.33
2019-05-25T12:43:36.496Z,46.23
2019-05-25T12:46:06.361Z,48.90
2019-05-25T12:48:35.786Z,49.93
2019-05-25T12:51:05.284Z,52.57
2019-05-25T12:53:34.735Z,52.83
2019-05-25T12:56:04.291Z,53.63
2019-05-25T12:58:33.739Z,58.13
2019-05-25T13:01:03.179Z,51.63
2019-05-25T13:03:32.980Z,51.40
2019-05-25T13:06:02.466Z,52.23
2019-05-25T13:08:31.892Z,50.20
2019-05-25T13:11:01.348Z,40.53
2019-05-25T13:13:30.788Z,40.87
2019-05-25T13:16:00.220Z,40.10
2019-05-25T13:18:29.717Z,36.13
2019-05-25T13:20:59.124Z,38.93
2019-05-25T13:23:28.580Z,36.17
2019-05-25T13:25:58.089Z,36.00
2019-05-25T13:28:27.550Z,39.83
2019-05-25T13:31:10.779Z,38.90
2019-05-25T13:33:28.168Z,43.50
2019-05-25T13:35:57.585Z,40.13
2019-05-25T13:38:27.059Z,41.13
2019-05-25T13:40:56.535Z,42.53
2019-05-25T13:43:25.959Z,51.43
2019-05-25T13:45:55.394Z,48.27
2019-05-25T13:48:24.827Z,47.87
2019-05-25T13:50:54.272Z,48.13
2019-05-25T13:53:23.728Z,49.83
2019-05-25T13:55:53.238Z,51.10
2019-05-25T13:58:22.684Z,48.40
2019-05-25T14:00:52.117Z,41.63
2019-05-25T14:03:21.591Z,43.80
2019-05-25T14:05:51.068Z,44.13
2019-05-25T14:08:20.487Z,43.27
2019-05-25T14:10:50.019Z,47.63
2019-05-25T14:13:19.469Z,39.77
2019-05-25T14:15:48.914Z,40.67
2019-05-25T14:18:19.881Z,35.37
2019-05-25T14:20:49.931Z,36.33
2019-05-25T14:23:27.262Z,37.27
2019-05-25T14:25:56.709Z,38.10
2019-05-25T14:28:26.318Z,38.80
2019-05-25T14:30:55.860Z,33.80
2019-05-25T14:33:25.320Z,32.57
2019-05-25T14:35:54.778Z,28.13
2019-05-25T14:38:24.270Z,25.10
2019-05-25T14:40:53.952Z,20.93
2019-05-25T14:43:23.398Z,8.77
2019-05-25T14:45:54.570Z,8.60
2019-05-25T14:48:24.434Z,6.93
2019-05-25T14:50:53.872Z,5.77
2019-05-25T14:53:23.302Z,5.47
2019-05-25T14:55:52.853Z,6.03
2019-05-25T14:58:22.550Z,4.90
2019-05-25T15:00:52.059Z,4.50
2019-05-25T15:03:21.472Z,4.37
2019-05-25T15:05:51.027Z,4.40
2019-05-25T15:08:20.536Z,4.63
2019-05-25T15:10:49.949Z,4.30
2019-05-25T15:13:19.387Z,4.83
2019-05-25T15:15:48.818Z,4.70
2019-05-25T15:18:18.550Z,4.40
2019-05-25T15:20:48.045Z,3.83
2019-05-25T15:23:17.458Z,5.07
2019-05-25T15:25:46.960Z,5.13
2019-05-25T15:28:16.422Z,4.50
2019-05-25T15:30:46.022Z,4.10
2019-05-25T15:33:15.544Z,4.20
2019-05-25T15:35:44.968Z,4.60
2019-05-25T15:38:14.427Z,4.27
2019-05-25T15:40:44.007Z,3.53
2019-05-25T15:43:13.479Z,3.30
2019-05-25T15:45:42.993Z,5.07
2019-05-25T15:48:12.470Z,5.23
2019-05-25T15:50:42.020Z,5.70
2019-05-25T15:53:11.778Z,5.70
2019-05-25T15:55:41.286Z,6.00
2019-05-25T15:58:10.697Z,6.13
2019-05-25T16:00:50.537Z,6.40
2019-05-25T16:03:20.850Z,4.43
2019-05-25T16:05:51.392Z,4.80
2019-05-25T16:08:21.778Z,4.63
2019-05-25T16:10:51.272Z,4.50
2019-05-25T16:13:20.844Z,4.70
2019-05-25T16:15:50.333Z,4.83
2019-05-25T16:18:19.941Z,5.10
2019-05-25T16:20:49.347Z,4.57
2019-05-25T16:23:18.924Z,4.80
2019-05-25T16:25:48.878Z,4.20
2019-05-25T16:28:18.431Z,3.43
2019-05-25T16:30:48.023Z,3.23
2019-05-25T16:33:17.633Z,3.27
